Airfield :
LOGIN :

Register | Disclaimer

   EN    FR    IT 

 










Legend :    VFR   Marginal VFR   IFR   Intensive IFR   Very Intensive IFR
Visi :
Ceiling :
>= 8 km
>= 3000ft
5 to 8 km
1000 to 3000 ft
1500m to 5 km
500 to 1000 ft
800 to 1500m
200 to 500 ft
< 800m
< 200 ft
Symbols :   Thunderstorms  Fog  Heavy snow  Heavy precipitations  Wind > 20 kt
SIGMETs :     Misc.  Thunderstorms  Icing  Turbulence  Mountain Waves  Volcanic Ashes







- Airport Elevation : 203 ft
- IATA code : XMJ
- Download approach charts


LFBM - Mont-De-Marsan

CURRENT METAR :
  • 240000Z AUTO 08001KT CAVOK M01/M03 Q1009 NOSIG

EXPIRED METARs :
  • 232330Z AUTO 05002KT CAVOK M00/M04 Q1009 NOSIG
  • 232300Z AUTO VRB01KT CAVOK 01/M03 Q1009 NOSIG
  • 232230Z AUTO 05003KT 9999 FEW040 SCT240 01/M04 Q1009 NOSIG
  • 232200Z AUTO 03004KT 9999 OVC041 02/M03 Q1010 NOSIG
  • 232130Z AUTO 04004KT 9999 OVC042 03/M02 Q1010 NOSIG

TAF TAF LFBM
Valid from the 23 at 21:00 until the 24 at 21:00 UTC


232000Z 2321/2421 06005KT 9999 BKN045
TEMPO 2402/2406 2500 BR
No reported NOTAMs for that airfield.



MET'MAP, your aeronautical weather chart ! - Copyright ORBIFLY December 2007 - Disclaimer

ORBIFLY MET'MAP TEAM :

Programming & Development : Alexandra Zaïnal
Concept & Development : Baudouin d'Aumeries
Co-Development & Prog : Marc-Olivier Méhu
Technical & hardware support : Manuel Goepfert

Contact : metmap@orbifly.com




SOURCES & CREDITS :

   NOAA